createdAt,value
2019-02-09T00:01:35.791Z,7.00
2019-02-09T00:04:04.068Z,7.00
2019-02-09T00:06:32.110Z,7.00
2019-02-09T00:09:01.082Z,7.00
2019-02-09T00:11:28.780Z,7.00
2019-02-09T00:13:58.124Z,7.00
2019-02-09T00:16:25.789Z,7.00
2019-02-09T00:18:53.519Z,7.10
2019-02-09T00:21:21.720Z,7.10
2019-02-09T00:23:49.597Z,7.10
2019-02-09T00:26:17.234Z,7.10
2019-02-09T00:28:44.919Z,7.10
2019-02-09T00:31:12.606Z,7.10
2019-02-09T00:33:40.313Z,7.20
2019-02-09T00:36:07.956Z,7.20
2019-02-09T00:38:36.582Z,7.20
2019-02-09T00:41:04.280Z,7.30
2019-02-09T00:43:31.916Z,7.30
2019-02-09T00:45:59.582Z,7.30
2019-02-09T00:48:27.272Z,7.30
2019-02-09T00:50:55.046Z,7.30
2019-02-09T00:53:22.662Z,7.30
2019-02-09T00:55:52.075Z,7.30
2019-02-09T00:58:19.727Z,7.30
2019-02-09T01:00:47.439Z,7.30
2019-02-09T01:03:15.162Z,7.30
2019-02-09T01:05:44.026Z,7.30
2019-02-09T01:08:11.944Z,7.30
2019-02-09T01:10:39.668Z,7.30
2019-02-09T01:13:07.405Z,7.40
2019-02-09T01:15:35.163Z,7.30
2019-02-09T01:18:02.827Z,7.30
2019-02-09T01:20:30.480Z,7.30
2019-02-09T01:22:58.420Z,7.30
2019-02-09T01:25:26.189Z,7.30
2019-02-09T01:27:53.802Z,7.30
2019-02-09T01:30:22.858Z,7.20
2019-02-09T01:32:50.624Z,7.20
2019-02-09T01:35:18.430Z,7.20
2019-02-09T01:37:47.864Z,7.20
2019-02-09T01:40:22.972Z,7.20
2019-02-09T01:42:50.595Z,7.20
2019-02-09T01:45:23.385Z,7.20
2019-02-09T01:47:51.179Z,7.10
2019-02-09T01:50:19.313Z,7.10
2019-02-09T01:52:46.999Z,7.10
2019-02-09T01:55:14.890Z,7.10
2019-02-09T01:57:42.552Z,7.10
2019-02-09T02:00:15.467Z,7.00
2019-02-09T02:02:43.186Z,7.10
2019-02-09T02:05:11.347Z,7.10
2019-02-09T02:07:38.990Z,7.10
2019-02-09T02:10:10.036Z,7.10
2019-02-09T02:12:37.667Z,7.10
2019-02-09T02:15:08.902Z,7.10
2019-02-09T02:17:36.542Z,7.10
2019-02-09T02:20:05.625Z,7.10
2019-02-09T02:22:33.296Z,7.10
2019-02-09T02:25:00.943Z,7.00
2019-02-09T02:27:28.641Z,7.00
2019-02-09T02:29:56.336Z,7.00
2019-02-09T02:32:24.048Z,7.00
2019-02-09T02:34:51.740Z,7.00
2019-02-09T02:37:19.439Z,7.10
2019-02-09T02:39:47.056Z,7.20
2019-02-09T02:42:14.780Z,7.40
2019-02-09T02:44:42.458Z,7.40
2019-02-09T02:47:10.129Z,7.40
2019-02-09T02:49:37.748Z,7.40
2019-02-09T02:52:05.444Z,7.40
2019-02-09T02:54:33.092Z,7.40
2019-02-09T02:57:01.172Z,7.40
2019-02-09T03:04:39.894Z,7.50
2019-02-09T03:07:07.663Z,7.50
2019-02-09T03:09:35.340Z,7.60
2019-02-09T03:12:03.124Z,7.60
2019-02-09T03:14:31.006Z,7.60
2019-02-09T03:16:58.673Z,7.60
2019-02-09T03:19:26.359Z,7.70
2019-02-09T03:21:54.111Z,7.70
2019-02-09T03:24:21.769Z,7.80
2019-02-09T03:26:52.452Z,7.90
2019-02-09T03:29:20.232Z,7.90
2019-02-09T03:31:47.957Z,8.00
2019-02-09T03:34:15.672Z,8.00
2019-02-09T03:36:43.434Z,8.10
2019-02-09T03:39:11.145Z,8.10
2019-02-09T03:41:39.086Z,8.10
2019-02-09T03:49:02.123Z,8.20
2019-02-09T03:51:29.885Z,8.10
2019-02-09T03:53:57.563Z,8.10
2019-02-09T03:56:25.247Z,8.10
2019-02-09T03:58:52.934Z,8.20
2019-02-09T04:01:20.702Z,8.20
2019-02-09T04:03:48.383Z,8.20
2019-02-09T04:13:39.105Z,8.10
2019-02-09T04:18:34.736Z,8.00
2019-02-09T04:23:30.067Z,7.90
2019-02-09T04:25:59.317Z,8.00
2019-02-09T04:28:27.048Z,7.90
2019-02-09T04:40:45.454Z,7.90
2019-02-09T04:43:13.197Z,8.00
2019-02-09T04:45:40.877Z,7.90
2019-02-09T04:48:08.606Z,7.90
2019-02-09T04:50:36.287Z,7.80
2019-02-09T04:53:04.047Z,7.60
2019-02-09T04:55:31.795Z,7.50
2019-02-09T04:57:59.511Z,7.40
2019-02-09T05:00:28.797Z,7.50
2019-02-09T05:07:51.918Z,7.60
2019-02-09T05:10:20.300Z,7.60
2019-02-09T05:17:43.496Z,7.80
2019-02-09T05:22:40.161Z,8.10
2019-02-09T05:25:08.546Z,8.10
2019-02-09T05:27:36.279Z,8.10
2019-02-09T05:30:06.139Z,8.10
2019-02-09T05:32:34.008Z,8.10
2019-02-09T05:35:01.740Z,8.10
2019-02-09T05:37:29.482Z,8.10
2019-02-09T05:39:57.249Z,8.10
2019-02-09T05:42:24.951Z,8.00
2019-02-09T05:44:52.689Z,8.10
2019-02-09T05:47:20.430Z,8.10
2019-02-09T05:49:50.657Z,8.00
2019-02-09T05:52:18.360Z,8.00
2019-02-09T05:54:46.101Z,8.10
2019-02-09T05:57:13.764Z,8.10
2019-02-09T05:59:41.478Z,8.10
2019-02-09T06:02:09.219Z,8.30
2019-02-09T06:04:37.028Z,8.20
2019-02-09T06:07:04.709Z,8.20
2019-02-09T06:09:32.479Z,8.20
2019-02-09T06:12:00.144Z,8.20
2019-02-09T06:14:27.944Z,8.30
2019-02-09T06:16:55.672Z,8.30
2019-02-09T06:19:23.410Z,8.30
2019-02-09T06:21:51.124Z,8.30
2019-02-09T06:24:18.876Z,8.30
2019-02-09T06:26:46.575Z,8.30
2019-02-09T06:29:14.331Z,8.30
2019-02-09T06:31:42.151Z,8.30
2019-02-09T06:34:09.832Z,8.30
2019-02-09T06:36:37.663Z,8.20
2019-02-09T06:39:07.443Z,8.20
2019-02-09T06:41:35.160Z,8.10
2019-02-09T06:44:02.959Z,8.10
2019-02-09T06:46:30.633Z,8.10
2019-02-09T06:48:58.354Z,8.00
2019-02-09T06:51:26.071Z,8.00
2019-02-09T06:53:53.859Z,8.00
2019-02-09T06:56:23.268Z,7.90
2019-02-09T06:58:51.055Z,7.90
2019-02-09T07:01:18.856Z,7.80
2019-02-09T07:03:46.582Z,7.80
2019-02-09T07:06:14.360Z,7.80
2019-02-09T07:08:42.042Z,7.70
2019-02-09T07:11:09.736Z,7.70
2019-02-09T07:13:37.484Z,7.60
2019-02-09T07:16:05.259Z,7.50
2019-02-09T07:18:32.974Z,7.40
2019-02-09T07:21:00.629Z,7.20
2019-02-09T07:23:28.330Z,7.10
2019-02-09T07:25:56.068Z,7.10
2019-02-09T07:28:23.710Z,7.10
2019-02-09T07:30:51.471Z,7.10
2019-02-09T07:33:19.187Z,7.00
2019-02-09T07:35:46.926Z,7.00
2019-02-09T07:38:14.589Z,7.10
2019-02-09T07:40:42.269Z,7.20
2019-02-09T07:43:10.004Z,7.30
2019-02-09T07:45:38.003Z,7.30
2019-02-09T07:48:05.821Z,7.40
2019-02-09T07:50:33.666Z,7.30
2019-02-09T07:53:01.355Z,7.30
2019-02-09T07:55:29.023Z,7.30
2019-02-09T07:57:56.726Z,7.30
2019-02-09T08:02:53.272Z,7.30
2019-02-09T08:05:22.899Z,7.30
2019-02-09T08:07:50.726Z,7.40
2019-02-09T08:10:21.159Z,7.40
2019-02-09T08:15:19.008Z,7.50
2019-02-09T08:17:46.720Z,7.50
2019-02-09T08:20:15.126Z,7.60
2019-02-09T08:22:42.958Z,7.70
2019-02-09T08:25:13.297Z,7.80
2019-02-09T08:27:40.979Z,8.30
2019-02-09T08:30:10.708Z,8.00
2019-02-09T08:32:38.445Z,8.10
2019-02-09T08:35:06.426Z,8.20
2019-02-09T08:37:34.164Z,8.20
2019-02-09T08:40:01.971Z,8.40
2019-02-09T08:42:30.991Z,8.40
2019-02-09T08:44:58.783Z,8.50
2019-02-09T08:47:26.480Z,8.60
2019-02-09T08:49:54.288Z,8.60
2019-02-09T08:52:21.961Z,8.80
2019-02-09T08:54:49.864Z,8.80
2019-02-09T08:57:17.575Z,8.70
2019-02-09T08:59:45.380Z,8.70
2019-02-09T09:02:20.228Z,8.80
2019-02-09T09:04:42.591Z,8.90
2019-02-09T09:07:10.359Z,9.00
2019-02-09T09:09:38.133Z,9.20
2019-02-09T09:12:05.792Z,9.30
2019-02-09T09:14:33.435Z,9.40
2019-02-09T09:17:01.240Z,9.50
2019-02-09T09:19:28.912Z,9.50
2019-02-09T09:21:56.642Z,9.40
2019-02-09T09:26:51.902Z,9.30
2019-02-09T09:31:47.295Z,9.20
2019-02-09T09:34:15.039Z,9.20
2019-02-09T09:36:42.797Z,9.20
2019-02-09T09:39:10.435Z,9.30
2019-02-09T09:41:38.180Z,9.50
2019-02-09T09:44:05.885Z,9.60
2019-02-09T09:46:35.259Z,9.80
2019-02-09T09:49:03.067Z,9.70
2019-02-09T09:51:30.865Z,9.60
2019-02-09T09:53:59.654Z,9.50
2019-02-09T10:01:22.607Z,9.70
2019-02-09T10:03:52.025Z,9.80
2019-02-09T10:06:19.932Z,9.70
2019-02-09T10:08:47.661Z,9.70
2019-02-09T10:11:15.383Z,10.00
2019-02-09T10:13:43.104Z,10.00
2019-02-09T10:16:10.988Z,10.40
2019-02-09T10:18:38.719Z,10.50
2019-02-09T10:21:06.462Z,10.60
2019-02-09T10:23:34.193Z,10.30
2019-02-09T10:26:01.886Z,10.10
2019-02-09T10:28:38.466Z,9.90
2019-02-09T10:31:06.200Z,9.70
2019-02-09T10:33:33.907Z,9.60
2019-02-09T10:36:01.644Z,9.60
2019-02-09T10:38:29.353Z,9.50
2019-02-09T10:40:57.090Z,9.60
2019-02-09T10:43:24.768Z,9.60
2019-02-09T10:45:52.476Z,9.60
2019-02-09T10:48:20.997Z,9.70
2019-02-09T10:50:48.775Z,9.60
2019-02-09T10:53:16.425Z,9.40
2019-02-09T10:58:11.847Z,9.30
2019-02-09T11:00:45.383Z,9.50
2019-02-09T11:03:13.168Z,9.50
2019-02-09T11:08:08.570Z,9.90
2019-02-09T11:10:36.732Z,10.00
2019-02-09T11:13:05.014Z,10.00
2019-02-09T11:15:32.748Z,9.90
2019-02-09T11:18:00.458Z,9.90
2019-02-09T11:20:28.144Z,9.90
2019-02-09T11:22:55.838Z,9.90
2019-02-09T11:25:23.625Z,9.70
2019-02-09T11:27:51.381Z,9.60
2019-02-09T11:30:20.439Z,9.60
2019-02-09T11:32:48.452Z,9.80
2019-02-09T11:35:16.238Z,9.90
2019-02-09T11:37:43.966Z,10.20
2019-02-09T11:40:11.989Z,10.20
2019-02-09T11:42:40.593Z,10.60
2019-02-09T11:45:12.058Z,11.00
2019-02-09T11:47:39.830Z,11.10
2019-02-09T11:50:08.747Z,11.10
2019-02-09T11:52:36.499Z,11.20
2019-02-09T11:55:05.476Z,11.30
2019-02-09T11:57:33.447Z,11.30
2019-02-09T12:00:01.212Z,11.30
2019-02-09T12:02:28.978Z,11.50
2019-02-09T12:04:56.652Z,11.40
2019-02-09T12:07:24.422Z,11.20
2019-02-09T12:09:52.159Z,11.10
2019-02-09T12:12:19.954Z,11.00
2019-02-09T12:14:47.607Z,10.80
2019-02-09T12:17:15.342Z,10.70
2019-02-09T12:19:43.035Z,10.60
2019-02-09T12:22:10.727Z,10.50
2019-02-09T12:24:38.433Z,10.40
2019-02-09T12:27:06.203Z,10.50
2019-02-09T12:29:33.885Z,10.50
2019-02-09T12:32:01.628Z,10.30
2019-02-09T12:34:29.645Z,10.20
2019-02-09T12:36:57.366Z,10.10
2019-02-09T12:39:25.093Z,9.90
2019-02-09T12:41:52.842Z,9.70
2019-02-09T12:44:20.492Z,9.30
2019-02-09T12:46:48.256Z,9.00
2019-02-09T12:49:15.897Z,9.00
2019-02-09T12:54:11.239Z,9.10
2019-02-09T12:56:40.776Z,9.10
2019-02-09T12:59:14.888Z,9.20
2019-02-09T13:01:38.075Z,9.20
2019-02-09T13:04:05.754Z,9.30
2019-02-09T13:09:01.110Z,9.50
2019-02-09T13:11:28.908Z,9.70
2019-02-09T13:13:56.626Z,9.70
2019-02-09T13:16:24.334Z,9.70
2019-02-09T13:18:52.005Z,9.80
2019-02-09T13:21:20.693Z,9.90
2019-02-09T13:23:48.359Z,10.00
2019-02-09T13:26:17.299Z,10.20
2019-02-09T13:28:44.986Z,10.30
2019-02-09T13:31:12.665Z,10.30
2019-02-09T13:33:40.377Z,10.40
2019-02-09T13:36:08.009Z,10.60
2019-02-09T13:38:35.737Z,10.70
2019-02-09T13:41:03.405Z,10.70
2019-02-09T13:43:31.743Z,10.80
2019-02-09T13:45:59.492Z,10.80
2019-02-09T13:48:27.155Z,9.80
2019-02-09T13:50:54.912Z,10.80
2019-02-09T13:53:22.603Z,10.80
2019-02-09T13:55:50.272Z,10.80
2019-02-09T13:58:18.019Z,10.80
2019-02-09T14:00:47.584Z,10.70
2019-02-09T14:03:15.285Z,10.70
2019-02-09T14:05:42.986Z,10.70
2019-02-09T14:08:10.684Z,10.70
2019-02-09T14:10:38.428Z,10.70
2019-02-09T14:13:13.858Z,10.70
2019-02-09T14:15:35.664Z,10.50
2019-02-09T14:18:06.919Z,10.20
2019-02-09T14:20:34.645Z,9.80
2019-02-09T14:23:02.291Z,9.20
2019-02-09T14:25:29.997Z,9.00
2019-02-09T14:27:59.786Z,8.60
2019-02-09T14:32:55.951Z,8.30
2019-02-09T14:35:24.061Z,8.30
2019-02-09T14:37:52.465Z,8.30
2019-02-09T14:40:22.520Z,8.30
2019-02-09T14:42:53.420Z,8.20
2019-02-09T14:45:23.479Z,8.20
2019-02-09T14:47:51.317Z,8.20
2019-02-09T14:50:19.623Z,8.20
2019-02-09T14:52:47.278Z,8.20
2019-02-09T14:55:21.944Z,8.30
2019-02-09T14:57:49.714Z,8.40
2019-02-09T15:00:19.723Z,8.40
2019-02-09T15:02:53.498Z,8.40
2019-02-09T15:05:16.990Z,8.40
2019-02-09T15:10:14.498Z,8.40
2019-02-09T15:12:42.220Z,8.30
2019-02-09T15:15:16.331Z,8.30
2019-02-09T15:17:44.027Z,8.40
2019-02-09T15:20:15.050Z,8.40
2019-02-09T15:22:42.762Z,8.50
2019-02-09T15:25:10.499Z,8.50
2019-02-09T15:32:36.660Z,8.70
2019-02-09T15:35:06.699Z,8.80
2019-02-09T15:37:34.423Z,8.90
2019-02-09T15:40:02.156Z,8.90
2019-02-09T15:42:29.834Z,8.90
2019-02-09T15:44:57.797Z,9.00
2019-02-09T15:47:25.611Z,9.00
2019-02-09T15:49:53.328Z,9.00
2019-02-09T15:52:21.087Z,9.10
2019-02-09T15:54:48.767Z,9.10
2019-02-09T15:59:44.084Z,9.20
2019-02-09T16:02:11.765Z,9.20
2019-02-09T16:04:39.501Z,9.20
2019-02-09T16:07:15.180Z,9.20
2019-02-09T16:09:43.200Z,9.20
2019-02-09T16:12:10.892Z,9.20
2019-02-09T16:14:38.586Z,9.20
2019-02-09T16:17:06.407Z,9.20
2019-02-09T16:19:34.094Z,9.20
2019-02-09T16:22:01.823Z,9.20
2019-02-09T16:26:57.097Z,9.30
2019-02-09T16:29:26.558Z,9.30
2019-02-09T16:31:55.323Z,9.20
2019-02-09T16:34:25.454Z,9.30
2019-02-09T16:36:52.596Z,9.30
2019-02-09T16:39:20.293Z,9.30
2019-02-09T16:41:49.570Z,9.30
2019-02-09T16:44:17.257Z,9.30
2019-02-09T16:46:44.987Z,9.40
2019-02-09T16:49:12.650Z,9.30
2019-02-09T16:51:40.446Z,9.40
2019-02-09T16:54:08.112Z,9.40
2019-02-09T16:56:35.862Z,9.40
2019-02-09T16:59:04.851Z,9.40
2019-02-09T17:01:32.548Z,9.10
2019-02-09T17:04:00.292Z,8.90
2019-02-09T17:06:28.006Z,8.80
2019-02-09T17:08:55.676Z,8.60
2019-02-09T17:13:52.377Z,8.50
2019-02-09T17:16:20.094Z,8.50
2019-02-09T17:18:47.764Z,8.40
2019-02-09T17:21:15.458Z,8.40
2019-02-09T17:23:43.189Z,8.30
2019-02-09T17:26:10.872Z,8.30
2019-02-09T17:28:38.642Z,8.20
2019-02-09T17:31:06.357Z,8.20
2019-02-09T17:33:34.110Z,8.20
2019-02-09T17:36:01.883Z,8.20
2019-02-09T17:38:29.571Z,8.20
2019-02-09T17:40:57.471Z,8.20
2019-02-09T17:43:25.219Z,8.20
2019-02-09T17:46:02.509Z,8.30
2019-02-09T17:50:58.295Z,8.30
2019-02-09T17:53:26.159Z,8.30
2019-02-09T17:55:56.340Z,8.30
2019-02-09T17:58:24.358Z,8.30
2019-02-09T18:00:58.837Z,8.30
2019-02-09T18:03:26.602Z,8.40
2019-02-09T18:05:54.332Z,8.40
2019-02-09T18:08:22.315Z,8.40
2019-02-09T18:13:17.786Z,8.50
2019-02-09T18:15:45.591Z,8.40
2019-02-09T18:18:13.377Z,8.40
2019-02-09T18:25:37.861Z,8.50
2019-02-09T18:28:05.943Z,8.50
2019-02-09T18:30:33.630Z,8.50
2019-02-09T18:33:03.864Z,8.50
2019-02-09T18:35:35.760Z,8.50
2019-02-09T18:38:03.787Z,8.50
2019-02-09T18:40:31.618Z,8.50
2019-02-09T18:43:00.599Z,8.60
2019-02-09T18:45:28.824Z,8.60
2019-02-09T18:47:56.654Z,8.40
2019-02-09T18:50:26.985Z,8.50
2019-02-09T18:52:56.455Z,8.50
2019-02-09T18:55:25.311Z,8.50
2019-02-09T18:57:53.297Z,8.50
2019-02-09T19:00:23.850Z,8.60
2019-02-09T19:02:53.468Z,8.60
2019-02-09T19:07:49.179Z,8.60
2019-02-09T19:10:21.010Z,8.60
2019-02-09T19:12:53.721Z,8.60
2019-02-09T19:15:25.203Z,8.60
2019-02-09T19:17:57.191Z,8.60
2019-02-09T19:20:32.923Z,8.60
2019-02-09T19:23:00.746Z,8.60
2019-02-09T19:25:28.928Z,8.60
2019-02-09T19:27:56.684Z,8.50
2019-02-09T19:30:24.706Z,8.50
2019-02-09T19:32:52.459Z,8.50
2019-02-09T19:35:20.521Z,8.40
2019-02-09T19:37:48.739Z,8.30
2019-02-09T19:40:16.708Z,8.40
2019-02-09T19:42:45.339Z,8.30
2019-02-09T19:45:32.095Z,8.30
2019-02-09T19:48:00.149Z,8.20
2019-02-09T19:52:55.777Z,8.20
2019-02-09T19:55:28.675Z,8.20
2019-02-09T19:57:56.566Z,8.30
2019-02-09T20:00:33.189Z,8.30
2019-02-09T20:03:00.969Z,8.20
2019-02-09T20:05:28.778Z,8.30
2019-02-09T20:07:56.632Z,8.30
2019-02-09T20:10:27.943Z,8.30
2019-02-09T20:12:55.817Z,8.20
2019-02-09T20:15:23.599Z,8.20
2019-02-09T20:17:51.423Z,8.20
2019-02-09T20:20:19.378Z,8.20
2019-02-09T20:22:47.138Z,8.10
2019-02-09T20:25:16.682Z,8.10
2019-02-09T20:27:44.450Z,8.10
2019-02-09T20:30:20.474Z,8.00
2019-02-09T20:32:48.438Z,8.00
2019-02-09T20:35:16.501Z,8.00
2019-02-09T20:37:44.641Z,7.90
2019-02-09T20:40:17.959Z,7.80
2019-02-09T20:42:51.550Z,7.80
2019-02-09T20:45:20.006Z,7.80
2019-02-09T20:47:50.051Z,7.80
2019-02-09T20:50:17.617Z,7.80
2019-02-09T20:52:45.688Z,7.90
2019-02-09T20:55:13.843Z,8.00
2019-02-09T20:57:42.535Z,8.00
2019-02-09T21:00:18.455Z,8.00
2019-02-09T21:02:43.526Z,8.10
2019-02-09T21:05:12.562Z,8.10
2019-02-09T21:10:14.173Z,8.00
2019-02-09T21:12:41.882Z,8.00
2019-02-09T21:15:10.185Z,7.90
2019-02-09T21:17:37.924Z,7.90
2019-02-09T21:20:05.794Z,7.80
2019-02-09T21:22:33.530Z,7.90
2019-02-09T21:25:10.518Z,7.90
2019-02-09T21:27:38.288Z,7.90
2019-02-09T21:30:06.702Z,7.90
2019-02-09T21:32:40.168Z,7.90
2019-02-09T21:35:05.442Z,8.00
2019-02-09T21:37:33.233Z,7.80
2019-02-09T21:40:01.030Z,8.00
2019-02-09T21:42:28.811Z,8.00
2019-02-09T21:44:56.568Z,8.10
2019-02-09T21:47:24.451Z,8.10
2019-02-09T21:49:52.278Z,8.20
2019-02-09T21:52:20.048Z,8.20
2019-02-09T21:54:47.740Z,8.20
2019-02-09T21:57:15.546Z,8.20
2019-02-09T21:59:43.338Z,8.30
2019-02-09T22:02:11.142Z,8.30
2019-02-09T22:04:39.218Z,8.40
2019-02-09T22:07:09.540Z,8.40
2019-02-09T22:09:37.241Z,8.40
2019-02-09T22:12:05.036Z,8.40
2019-02-09T22:14:32.849Z,8.40
2019-02-09T22:17:00.769Z,8.50
2019-02-09T22:19:28.668Z,8.50
2019-02-09T22:21:56.670Z,8.50
2019-02-09T22:24:24.684Z,8.40
2019-02-09T22:26:52.428Z,8.40
2019-02-09T22:29:20.116Z,8.40
2019-02-09T22:31:48.717Z,8.40
2019-02-09T22:34:16.432Z,8.40
2019-02-09T22:36:44.228Z,8.40
2019-02-09T22:39:12.061Z,8.40
2019-02-09T22:41:39.835Z,8.40
2019-02-09T22:44:07.663Z,8.40
2019-02-09T22:46:35.367Z,8.40
2019-02-09T22:49:03.252Z,8.40
2019-02-09T22:51:30.957Z,8.40
2019-02-09T22:53:58.689Z,8.40
2019-02-09T22:56:26.477Z,8.30
2019-02-09T22:58:54.133Z,8.30
2019-02-09T23:01:46.388Z,8.40
2019-02-09T23:04:53.880Z,8.40
2019-02-09T23:07:29.436Z,8.30
2019-02-09T23:09:58.226Z,8.40
2019-02-09T23:12:25.939Z,8.40
2019-02-09T23:14:53.665Z,8.40
2019-02-09T23:17:21.402Z,8.50
2019-02-09T23:19:49.123Z,8.50
2019-02-09T23:22:16.892Z,8.50
2019-02-09T23:24:44.621Z,8.50
2019-02-09T23:27:12.329Z,8.50
2019-02-09T23:29:40.097Z,8.50
2019-02-09T23:32:07.772Z,8.60
2019-02-09T23:34:35.472Z,8.50
2019-02-09T23:37:03.161Z,8.60
2019-02-09T23:39:30.982Z,8.60
2019-02-09T23:41:58.742Z,8.70
2019-02-09T23:44:26.466Z,8.60
2019-02-09T23:46:54.274Z,8.60
2019-02-09T23:49:21.996Z,8.60
2019-02-09T23:51:49.721Z,8.60
2019-02-09T23:54:17.407Z,8.60
2019-02-09T23:56:45.086Z,8.60
2019-02-09T23:59:12.801Z,8.60
